Time;durP1;ratioP1;P1;durP2;ratioP2;P2;SDS_P1;SDS_P2;PMS_P1;PMS_P2;Temp;Humidity;BMP_temperature;BMP_pressure;BME280_temperature;BME280_humidity;BME280_pressure;Samples;Min_cycle;Max_cycle;Signal;HPM_P1;HPM_P2
2022/12/18 00:00:46;;;;;;;34.93;17.83;;;;;;;-6.46;82.45;96416.97;4915870;29;20557;-83
2022/12/18 00:03:12;;;;;;;29.13;16.63;;;;;;;-6.46;82.43;96416.97;4926562;29;20239;-84
2022/12/18 00:05:46;;;;;;;27.07;16.40;;;;;;;-6.50;82.58;96413.69;4926157;29;20208;-84
2022/12/18 00:08:11;;;;;;;30.70;17.17;;;;;;;-6.44;82.45;96405.19;4928138;29;20217;-83
2022/12/18 00:10:36;;;;;;;33.27;16.83;;;;;;;-6.44;82.03;96397.59;4940096;29;20190;-84
2022/12/18 00:13:01;;;;;;;31.23;16.07;;;;;;;-6.50;82.16;96413.69;4924336;29;20210;-83
2022/12/18 00:15:27;;;;;;;27.27;17.23;;;;;;;-6.43;83.00;96407.69;4939173;29;20236;-84
2022/12/18 00:17:52;;;;;;;29.20;16.10;;;;;;;-6.46;82.70;96404.34;4924751;29;20722;-86
2022/12/18 00:20:23;;;;;;;31.40;16.43;;;;;;;-6.41;82.08;96412.69;4924040;29;20232;-85
2022/12/18 00:22:48;;;;;;;32.57;18.20;;;;;;;-6.45;82.23;96424.53;4929817;29;20211;-84
2022/12/18 00:25:14;;;;;;;32.33;17.87;;;;;;;-6.47;82.22;96425.41;4945994;29;20205;-85
2022/12/18 00:27:39;;;;;;;27.70;16.67;;;;;;;-6.45;82.32;96423.69;4917895;29;20200;-85
2022/12/18 00:30:05;;;;;;;34.77;17.70;;;;;;;-6.46;81.49;96416.97;4929203;29;20192;-85
2022/12/18 00:32:30;;;;;;;34.83;18.20;;;;;;;-6.52;81.83;96412.03;4944213;29;20204;-85
2022/12/18 00:34:55;;;;;;;37.03;19.20;;;;;;;-6.49;82.20;96417.03;4944456;29;20190;-84
2022/12/18 00:37:20;;;;;;;34.40;18.73;;;;;;;-6.48;81.78;96411.94;4944674;29;20184;-84
2022/12/18 00:39:48;;;;;;;35.37;18.47;;;;;;;-6.56;81.92;96421.34;4922776;29;20251;-83
2022/12/18 00:44:57;;;;;;;31.77;17.70;;;;;;;-6.61;81.52;96423.13;4945172;29;20863;-83
2022/12/18 00:47:22;;;;;;;35.83;18.47;;;;;;;-6.65;81.91;96422.31;4927726;29;20196;-84
2022/12/18 00:49:47;;;;;;;35.30;17.40;;;;;;;-6.71;82.64;96424.97;4942014;29;20195;-84
2022/12/18 00:52:13;;;;;;;34.17;18.47;;;;;;;-6.75;82.12;96425.00;4944035;29;20199;-83
2022/12/18 00:54:38;;;;;;;30.33;16.20;;;;;;;-6.70;82.70;96423.25;4943088;29;20547;-83
2022/12/18 00:57:03;;;;;;;30.10;16.87;;;;;;;-6.70;82.45;96428.31;4926276;29;20213;-82
2022/12/18 00:59:30;;;;;;;29.57;16.87;;;;;;;-6.76;82.38;96424.19;4926308;29;20195;-84
2022/12/18 01:01:55;;;;;;;26.93;17.10;;;;;;;-6.75;82.21;96418.25;4943704;29;20255;-82
2022/12/18 01:04:20;;;;;;;34.77;17.17;;;;;;;-6.76;82.36;96418.28;4927242;29;20191;-83
2022/12/18 01:06:45;;;;;;;32.13;18.53;;;;;;;-6.95;82.74;96413.50;4923631;29;20210;-84
2022/12/18 01:09:11;;;;;;;29.20;17.63;;;;;;;-6.84;82.62;96410.81;4940774;29;20201;-84
2022/12/18 01:11:36;;;;;;;34.23;17.90;;;;;;;-6.91;81.49;96416.81;4942251;29;20184;-83
2022/12/18 01:14:01;;;;;;;34.93;17.27;;;;;;;-6.98;82.07;96418.63;4943196;29;20220;-84
2022/12/18 01:16:27;;;;;;;35.47;18.80;;;;;;;-6.92;81.94;96412.63;4942855;29;20308;-82
2022/12/18 01:18:54;;;;;;;33.93;17.93;;;;;;;-6.94;82.15;96404.25;4925797;29;20576;-83
2022/12/18 01:21:19;;;;;;;30.50;16.70;;;;;;;-6.94;82.14;96404.25;4927390;29;20179;-83
2022/12/18 01:23:45;;;;;;;29.47;16.03;;;;;;;-6.94;82.11;96415.16;4943900;29;20244;-82
2022/12/18 01:26:15;;;;;;;32.03;15.80;;;;;;;-6.99;82.07;96419.44;4927272;29;20246;-84
2022/12/18 01:28:41;;;;;;;28.53;17.53;;;;;;;-6.94;81.80;96409.28;4922163;29;20201;-84
2022/12/18 01:31:31;;;;;;;30.20;16.33;;;;;;;-6.89;81.89;96407.50;4927197;29;20189;-83
2022/12/18 01:33:57;;;;;;;27.83;16.50;;;;;;;-6.94;80.96;96412.66;4941786;28;20223;-84
2022/12/18 01:36:27;;;;;;;30.03;16.50;;;;;;;-6.89;81.45;96412.56;4959064;29;20208;-84
2022/12/18 01:38:53;;;;;;;32.43;18.30;;;;;;;-6.92;81.23;96405.88;4948158;29;20165;-82
2022/12/18 01:41:23;;;;;;;32.40;16.33;;;;;;;-6.95;81.30;96410.16;4964214;28;20172;-83
2022/12/18 01:43:57;;;;;;;33.60;16.73;;;;;;;-6.89;80.96;96402.47;4946718;28;20226;-84
2022/12/18 01:46:23;;;;;;;29.10;16.13;;;;;;;-6.91;81.25;96407.53;4951947;29;20206;-84
2022/12/18 01:48:54;;;;;;;32.27;16.10;;;;;;;-7.10;81.06;96400.25;4931708;29;20203;-85
2022/12/18 01:51:20;;;;;;;28.97;16.13;;;;;;;-6.94;80.86;96409.28;4929999;29;20192;-84
2022/12/18 01:53:46;;;;;;;33.80;17.33;;;;;;;-6.94;80.03;96409.28;4946762;29;20176;-84
2022/12/18 01:56:17;;;;;;;32.07;16.93;;;;;;;-7.01;80.40;96407.69;4941779;29;20306;-84
2022/12/18 01:59:02;;;;;;;30.03;15.87;;;;;;;-6.99;80.48;96409.34;4924472;29;20688;-83
2022/12/18 02:01:29;;;;;;;29.40;15.87;;;;;;;-6.96;80.12;96411.00;4930699;29;20184;-82
2022/12/18 02:03:54;;;;;;;28.57;15.67;;;;;;;-7.00;79.97;96409.38;4912105;29;20195;-83
2022/12/18 02:06:34;;;;;;;30.53;15.77;;;;;;;-7.03;80.41;96409.41;4919188;29;20219;-82
2022/12/18 02:09:14;;;;;;;28.93;14.93;;;;;;;-7.13;80.31;96416.28;4920642;29;20597;-82
2022/12/18 02:11:59;;;;;;;25.80;14.50;;;;;;;-7.08;80.13;96416.22;4919126;29;20605;-82
2022/12/18 02:14:32;;;;;;;28.53;15.20;;;;;;;-7.01;80.48;96407.69;4944718;29;20195;-84
2022/12/18 02:17:11;;;;;;;32.13;15.40;;;;;;;-7.00;80.56;96402.63;4961623;29;20276;-83
2022/12/18 02:19:57;;;;;;;27.23;15.03;;;;;;;-6.97;79.75;96406.81;4926286;29;20254;-84
2022/12/18 02:22:48;;;;;;;27.83;14.90;;;;;;;-6.98;80.28;96408.50;4957060;29;20681;-82
2022/12/18 02:25:26;;;;;;;30.37;15.07;;;;;;;-6.99;79.88;96416.09;4936094;29;20311;-83
2022/12/18 02:27:52;;;;;;;27.27;15.17;;;;;;;-7.08;79.84;96412.00;4940049;29;20281;-81
2022/12/18 02:30:18;;;;;;;33.30;15.60;;;;;;;-7.05;80.59;96403.56;4924223;29;20185;-83
2022/12/18 02:32:48;;;;;;;29.80;15.77;;;;;;;-7.10;80.20;96405.31;4940518;29;20695;-82
2022/12/18 02:35:17;;;;;;;33.93;15.83;;;;;;;-7.04;81.00;96403.53;4915140;29;20215;-81
2022/12/18 02:37:44;;;;;;;26.60;16.30;;;;;;;-7.07;80.90;96395.97;4940999;29;20296;-83
2022/12/18 02:40:10;;;;;;;29.40;15.03;;;;;;;-6.97;80.77;96401.78;4924390;29;20191;-83
2022/12/18 02:42:36;;;;;;;28.47;16.33;;;;;;;-7.00;80.71;96399.25;4940554;29;20198;-82
2022/12/18 02:45:01;;;;;;;31.17;17.13;;;;;;;-7.07;81.58;96402.72;4938681;29;20213;-82
2022/12/18 02:47:29;;;;;;;33.47;16.07;;;;;;;-6.92;81.42;96400.81;4939328;29;20555;-82
2022/12/18 02:50:02;;;;;;;31.67;15.50;;;;;;;-6.92;81.00;96398.31;4923279;29;20215;-81
2022/12/18 02:52:36;;;;;;;31.43;15.83;;;;;;;-6.93;80.57;96405.91;4953131;29;20281;-83
2022/12/18 02:55:11;;;;;;;27.27;15.10;;;;;;;-6.94;81.16;96405.06;4939619;29;20217;-82
2022/12/18 02:57:55;;;;;;;35.37;16.57;;;;;;;-6.93;81.27;96393.28;4956603;29;20271;-82
2022/12/18 03:00:22;;;;;;;29.03;14.90;;;;;;;-6.90;80.78;96405.84;4940244;29;20203;-82
2022/12/18 03:03:10;;;;;;;35.00;17.47;;;;;;;-6.85;81.05;96415.03;4923533;29;20593;-83
2022/12/18 03:05:39;;;;;;;29.87;14.87;;;;;;;-6.91;81.22;96401.66;4921250;29;20214;-82
2022/12/18 03:08:12;;;;;;;30.20;17.40;;;;;;;-6.85;80.92;96412.50;4939731;29;20188;-82
2022/12/18 03:10:43;;;;;;;31.63;16.67;;;;;;;-7.01;81.10;96416.09;4939746;29;20184;-82
2022/12/18 03:13:22;;;;;;;26.07;15.07;;;;;;;-6.90;81.49;96419.31;4922701;29;20187;-82
2022/12/18 03:15:49;;;;;;;31.03;16.77;;;;;;;-7.05;81.36;96413.66;4917949;29;20232;-82
2022/12/18 03:18:19;;;;;;;27.93;15.80;;;;;;;-6.99;81.48;96403.47;4922983;29;20644;-82
2022/12/18 03:20:45;;;;;;;31.47;16.57;;;;;;;-7.03;81.79;96394.28;4922680;29;20196;-83
2022/12/18 03:23:14;;;;;;;33.97;16.60;;;;;;;-7.16;82.47;96404.50;4940230;29;20203;-83
2022/12/18 03:25:42;;;;;;;35.97;16.80;;;;;;;-7.05;81.77;96417.03;4940236;29;20211;-84
2022/12/18 03:28:13;;;;;;;31.03;17.53;;;;;;;-7.05;81.21;96417.03;4924002;29;20187;-84
2022/12/18 03:30:41;;;;;;;28.13;16.67;;;;;;;-7.10;81.29;96412.88;4922924;29;20191;-84
2022/12/18 03:33:10;;;;;;;33.03;17.00;;;;;;;-7.22;81.48;96412.19;4925286;29;20235;-83
2022/12/18 03:35:40;;;;;;;32.87;17.03;;;;;;;-7.23;81.45;96413.06;4939704;29;20240;-83
2022/12/18 03:38:06;;;;;;;31.87;17.63;;;;;;;-7.37;81.63;96407.34;4940235;29;20184;-84
2022/12/18 03:40:39;;;;;;;32.60;17.90;;;;;;;-7.45;80.91;96406.59;4940196;29;20184;-83
2022/12/18 03:43:20;;;;;;;34.57;18.87;;;;;;;-7.43;81.38;96408.22;4957891;29;20667;-82
2022/12/18 03:46:03;;;;;;;29.40;16.83;;;;;;;-7.44;81.29;96408.25;4939253;29;20715;-82
2022/12/18 03:48:39;;;;;;;31.23;16.90;;;;;;;-7.58;81.24;96397.53;4932791;29;20592;-84
2022/12/18 03:51:27;;;;;;;29.63;16.37;;;;;;;-7.67;81.30;96400.97;4955148;29;20642;-82
2022/12/18 03:54:00;;;;;;;27.27;15.63;;;;;;;-7.62;81.26;96399.22;4920450;29;20279;-82
2022/12/18 03:56:29;;;;;;;31.53;16.83;;;;;;;-7.93;82.54;96391.19;4940186;29;20294;-83
2022/12/18 03:58:55;;;;;;;33.93;17.70;;;;;;;-7.93;83.03;96393.69;4944451;29;20181;-83
2022/12/18 04:01:23;;;;;;;30.67;17.23;;;;;;;-7.89;83.11;96389.44;4924485;29;20188;-83
2022/12/18 04:03:49;;;;;;;33.20;16.77;;;;;;;-8.03;83.84;96402.22;4944154;29;20197;-84
2022/12/18 04:06:15;;;;;;;30.23;17.00;;;;;;;-7.94;84.85;96406.31;4932537;29;20211;-82
2022/12/18 04:08:40;;;;;;;32.13;17.43;;;;;;;-7.92;84.54;96402.94;4928290;29;20192;-84
2022/12/18 04:11:06;;;;;;;28.60;16.13;;;;;;;-7.85;84.54;96407.06;4935787;29;20221;-83
2022/12/18 04:13:37;;;;;;;29.07;17.27;;;;;;;-8.01;84.97;96396.31;4945390;29;20546;-83
2022/12/18 04:16:02;;;;;;;27.43;14.67;;;;;;;-7.87;85.02;96396.13;4927140;29;20314;-82
2022/12/18 04:18:27;;;;;;;29.73;16.07;;;;;;;-7.75;84.74;96398.53;4928090;29;20233;-84
2022/12/18 04:20:53;;;;;;;28.30;15.57;;;;;;;-7.79;84.88;96384.28;4944790;29;20206;-81
2022/12/18 04:23:18;;;;;;;27.37;15.47;;;;;;;-7.64;84.63;96390.00;4928252;29;20206;-82
2022/12/18 04:25:43;;;;;;;28.97;15.77;;;;;;;-7.59;84.31;96383.25;4943594;29;20714;-81
2022/12/18 04:28:09;;;;;;;29.17;15.83;;;;;;;-7.65;84.05;96379.09;4935080;29;20190;-82
2022/12/18 04:30:34;;;;;;;30.03;16.33;;;;;;;-7.56;83.75;96384.03;4936067;29;20203;-82
2022/12/18 04:32:59;;;;;;;28.27;15.10;;;;;;;-7.53;83.43;96378.09;4942962;29;20190;-82
2022/12/18 04:35:25;;;;;;;27.30;15.73;;;;;;;-7.54;83.48;96386.53;4942601;29;20600;-82
2022/12/18 04:37:50;;;;;;;25.03;15.60;;;;;;;-7.50;82.99;96386.47;4917950;29;20208;-83
2022/12/18 04:40:15;;;;;;;29.47;16.07;;;;;;;-7.50;82.38;96388.16;4936430;29;20250;-82
2022/12/18 04:42:41;;;;;;;31.20;15.13;;;;;;;-7.57;81.71;96389.09;4941351;29;20209;-84
2022/12/18 04:45:07;;;;;;;24.03;15.10;;;;;;;-7.70;82.12;96385.88;4945776;29;20209;-83
2022/12/18 04:47:32;;;;;;;32.20;15.80;;;;;;;-7.70;82.30;96388.38;4929340;29;20191;-83
2022/12/18 04:49:57;;;;;;;25.73;15.63;;;;;;;-7.82;82.58;96384.31;4946473;28;20174;-83
2022/12/18 04:52:23;;;;;;;28.13;15.53;;;;;;;-7.85;82.97;96384.38;4964941;28;20212;-82
2022/12/18 04:54:48;;;;;;;24.37;13.60;;;;;;;-7.93;83.26;96388.66;4929654;29;20202;-83
2022/12/18 04:57:13;;;;;;;26.67;14.67;;;;;;;-7.93;83.04;96381.09;4944286;29;20944;-83
2022/12/18 04:59:39;;;;;;;25.47;14.77;;;;;;;-7.94;83.41;96381.13;4927776;29;20192;-83
2022/12/18 05:02:04;;;;;;;23.03;13.67;;;;;;;-8.11;83.70;96378.78;4942888;29;20227;-83
2022/12/18 05:04:29;;;;;;;26.50;14.17;;;;;;;-8.10;84.35;96375.41;4926527;29;20220;-83
2022/12/18 05:06:54;;;;;;;29.53;13.80;;;;;;;-8.17;84.34;96383.88;4938472;29;20207;-82
2022/12/18 05:09:20;;;;;;;24.83;13.83;;;;;;;-8.07;84.21;96376.19;4945055;29;20201;-82
2022/12/18 05:11:46;;;;;;;28.00;14.77;;;;;;;-8.07;84.02;96382.91;4942347;29;20181;-84
2022/12/18 05:14:11;;;;;;;34.23;14.93;;;;;;;-8.05;83.71;96383.72;4925521;29;20231;-84
2022/12/18 05:16:37;;;;;;;24.70;14.13;;;;;;;-8.15;83.28;96384.69;4927258;29;20213;-83
2022/12/18 05:19:02;;;;;;;28.47;14.23;;;;;;;-8.20;83.40;96373.81;4944207;29;20245;-83
2022/12/18 05:21:27;;;;;;;30.47;14.90;;;;;;;-8.09;82.64;96382.94;4960751;29;20558;-83
2022/12/18 05:23:52;;;;;;;24.33;13.70;;;;;;;-8.10;83.31;96393.88;4944071;29;20195;-84
2022/12/18 05:26:18;;;;;;;22.43;13.00;;;;;;;-8.08;82.54;96392.16;4942887;29;20296;-83
2022/12/18 05:28:43;;;;;;;24.37;13.83;;;;;;;-8.08;82.53;96386.28;4943186;29;20278;-82
2022/12/18 05:31:09;;;;;;;26.77;13.03;;;;;;;-8.05;82.93;96388.78;4918924;29;20198;-83
2022/12/18 05:33:35;;;;;;;22.40;13.43;;;;;;;-7.95;82.54;96390.38;4926679;29;20195;-83
2022/12/18 05:36:06;;;;;;;25.93;13.30;;;;;;;-7.87;81.19;96392.78;4941939;29;20205;-82
2022/12/18 05:38:34;;;;;;;25.60;13.33;;;;;;;-7.89;81.49;96402.88;4959040;29;20288;-84
2022/12/18 05:40:59;;;;;;;26.30;14.20;;;;;;;-7.99;81.62;96401.31;4926873;29;20217;-83
2022/12/18 05:43:26;;;;;;;22.80;12.87;;;;;;;-7.94;81.62;96403.81;4942646;29;20209;-83
2022/12/18 05:45:52;;;;;;;25.60;13.20;;;;;;;-7.97;81.47;96409.69;4943099;29;20239;-83
2022/12/18 05:48:17;;;;;;;24.40;13.70;;;;;;;-7.99;81.53;96413.91;4943138;29;20257;-84
2022/12/18 05:50:46;;;;;;;28.03;13.73;;;;;;;-7.98;80.78;96415.59;4926241;29;20228;-82
2022/12/18 05:53:13;;;;;;;23.23;13.50;;;;;;;-8.16;81.46;96413.25;4943140;29;20190;-83
2022/12/18 05:55:39;;;;;;;24.50;15.03;;;;;;;-8.02;80.58;96398.84;4942330;29;20202;-83
2022/12/18 05:58:06;;;;;;;22.87;13.37;;;;;;;-8.04;80.93;96395.47;4943039;29;20183;-82
2022/12/18 06:00:33;;;;;;;26.63;14.03;;;;;;;-8.11;81.44;96396.41;4926456;29;20221;-82
2022/12/18 06:02:59;;;;;;;30.13;14.30;;;;;;;-8.17;80.91;96392.25;4942744;29;20262;-83
2022/12/18 06:05:25;;;;;;;25.77;13.37;;;;;;;-8.09;81.25;96389.66;4940013;29;20245;-83
2022/12/18 06:07:50;;;;;;;24.00;12.70;;;;;;;-8.09;82.18;96392.19;4941454;29;20236;-81
2022/12/18 06:10:15;;;;;;;26.97;13.33;;;;;;;-7.97;82.11;96401.31;4941399;29;20655;-82
2022/12/18 06:12:40;;;;;;;28.50;14.20;;;;;;;-8.10;82.38;96403.13;4942025;29;20711;-83
2022/12/18 06:15:06;;;;;;;27.33;13.33;;;;;;;-8.19;82.97;96398.16;4940722;29;20222;-83
2022/12/18 06:17:33;;;;;;;31.03;13.40;;;;;;;-8.21;83.51;96400.72;4923628;29;20219;-83
2022/12/18 06:19:58;;;;;;;27.60;13.37;;;;;;;-8.32;84.71;96393.22;4923718;29;20205;-82
2022/12/18 06:22:24;;;;;;;32.67;15.57;;;;;;;-8.41;85.15;96400.91;4940347;29;20218;-83
2022/12/18 06:24:49;;;;;;;37.10;15.70;;;;;;;-8.40;85.66;96400.03;4940869;29;20193;-81
2022/12/18 06:27:15;;;;;;;38.50;15.80;;;;;;;-8.49;87.20;96412.72;4940576;29;20190;-82
2022/12/18 06:29:40;;;;;;;34.87;16.40;;;;;;;-8.64;87.10;96413.69;4939515;29;20185;-82
2022/12/18 06:32:06;;;;;;;35.23;15.33;;;;;;;-8.66;87.69;96430.47;4940457;29;20186;-81
2022/12/18 06:34:32;;;;;;;36.87;15.53;;;;;;;-8.62;87.71;96426.28;4922217;29;20194;-83
2022/12/18 06:36:57;;;;;;;34.73;15.67;;;;;;;-8.53;87.92;96427.88;4939737;29;20209;-84
2022/12/18 06:39:22;;;;;;;39.47;15.37;;;;;;;-8.62;87.81;96427.09;4920925;29;20253;-83
2022/12/18 06:41:48;;;;;;;41.63;16.63;;;;;;;-8.55;88.08;96429.59;4916938;29;20210;-81
2022/12/18 06:44:13;;;;;;;37.03;15.20;;;;;;;-8.48;87.75;96428.66;4926426;29;20250;-83
2022/12/18 06:46:38;;;;;;;31.27;14.53;;;;;;;-8.66;88.11;96442.22;4935959;29;20578;-83
2022/12/18 06:49:03;;;;;;;39.70;17.23;;;;;;;-8.69;89.18;96435.53;4940356;29;20267;-82
2022/12/18 06:51:29;;;;;;;41.47;17.13;;;;;;;-8.55;88.89;96443.00;4921801;29;20233;-82
2022/12/18 06:53:54;;;;;;;39.53;17.37;;;;;;;-8.63;88.96;96439.72;4925891;29;20193;-82
2022/12/18 06:56:19;;;;;;;39.27;14.57;;;;;;;-8.70;89.78;96438.09;4930430;29;20246;-81
2022/12/18 06:58:45;;;;;;;39.17;15.83;;;;;;;-8.65;90.04;96442.25;4940642;29;20204;-82
2022/12/18 07:01:11;;;;;;;39.80;17.73;;;;;;;-8.54;89.20;96452.25;4939395;29;20264;-82
2022/12/18 07:03:38;;;;;;;43.60;18.10;;;;;;;-8.41;87.90;96455.47;4940785;29;20210;-83
2022/12/18 07:06:04;;;;;;;35.53;17.23;;;;;;;-8.43;88.32;96463.06;4938737;29;20302;-82
2022/12/18 07:08:30;;;;;;;45.87;18.77;;;;;;;-8.18;87.29;96465.34;4924799;29;20716;-84
2022/12/18 07:10:55;;;;;;;41.07;18.03;;;;;;;-8.16;86.36;96458.63;4943231;29;20650;-84
2022/12/18 07:13:21;;;;;;;34.13;16.93;;;;;;;-8.22;86.08;96462.00;4944403;29;20193;-84
2022/12/18 07:15:46;;;;;;;33.97;16.30;;;;;;;-8.15;87.43;96458.59;4944556;29;20248;-82
2022/12/18 07:18:11;;;;;;;38.63;17.57;;;;;;;-8.04;86.24;96461.88;4941442;29;20241;-83
2022/12/18 07:20:37;;;;;;;48.40;18.57;;;;;;;-8.00;86.56;96463.50;4940488;29;20582;-82
2022/12/18 07:23:06;;;;;;;42.90;19.80;;;;;;;-7.95;86.07;96458.44;4924538;29;20320;-83
2022/12/18 07:25:35;;;;;;;39.87;18.67;;;;;;;-7.85;86.31;96456.66;4919171;29;20221;-82
2022/12/18 07:28:00;;;;;;;35.67;17.10;;;;;;;-7.85;86.06;96452.44;4939740;29;20193;-82
2022/12/18 07:30:26;;;;;;;37.00;17.57;;;;;;;-7.73;86.03;96462.41;4921982;29;20194;-83
2022/12/18 07:32:51;;;;;;;42.73;18.00;;;;;;;-7.76;85.72;96449.84;4940114;29;20195;-83
2022/12/18 07:35:16;;;;;;;38.90;17.27;;;;;;;-7.74;86.12;96453.16;4938965;29;20678;-83
2022/12/18 07:37:42;;;;;;;41.73;17.53;;;;;;;-7.59;85.73;96447.13;4919239;29;20201;-82
2022/12/18 07:40:08;;;;;;;45.03;18.70;;;;;;;-7.62;85.98;96448.84;4931900;29;20189;-82
2022/12/18 07:42:33;;;;;;;39.77;18.10;;;;;;;-7.58;85.48;96440.41;4922713;29;20219;-82
2022/12/18 07:44:59;;;;;;;43.67;18.47;;;;;;;-7.46;85.15;96452.84;4935563;29;20190;-83
2022/12/18 07:47:25;;;;;;;39.60;17.37;;;;;;;-7.36;85.11;96459.47;4914318;29;20194;-81
2022/12/18 07:49:50;;;;;;;39.27;18.07;;;;;;;-7.31;85.15;96460.25;4938808;29;20275;-83
2022/12/18 07:52:15;;;;;;;39.43;17.37;;;;;;;-7.31;84.68;96465.31;4954390;29;20200;-81
2022/12/18 07:54:43;;;;;;;41.77;19.33;;;;;;;-7.11;84.82;96467.59;4938537;29;20189;-82
2022/12/18 07:57:08;;;;;;;40.40;19.17;;;;;;;-7.08;84.15;96466.69;4928819;29;20189;-83
2022/12/18 07:59:34;;;;;;;41.60;18.83;;;;;;;-6.92;83.57;96471.53;4935366;29;20185;-83
2022/12/18 08:01:59;;;;;;;43.40;17.53;;;;;;;-6.90;82.95;96468.97;4924708;29;20345;-83
2022/12/18 08:04:25;;;;;;;41.67;18.03;;;;;;;-6.93;83.49;96474.09;4926752;29;20202;-82
2022/12/18 08:06:50;;;;;;;41.53;16.93;;;;;;;-7.04;82.72;96465.81;4924875;29;20210;-82
2022/12/18 08:09:15;;;;;;;40.27;18.30;;;;;;;-6.86;83.29;96468.94;4923790;29;20645;-83
2022/12/18 08:11:41;;;;;;;40.23;17.90;;;;;;;-7.00;83.68;96480.06;4939618;29;20241;-86
2022/12/18 08:14:06;;;;;;;45.37;19.23;;;;;;;-6.82;83.35;96487.41;4923378;29;20271;-85
2022/12/18 08:16:31;;;;;;;42.07;17.53;;;;;;;-6.72;82.39;96488.94;4937344;29;20278;-84
2022/12/18 08:18:57;;;;;;;41.50;17.90;;;;;;;-6.85;84.32;96485.75;4922573;29;20188;-86
2022/12/18 08:21:28;;;;;;;36.43;17.87;;;;;;;-6.52;83.31;96483.63;4912437;29;20318;-86
2022/12/18 08:23:54;;;;;;;38.47;18.80;;;;;;;-6.59;83.68;96482.88;4950650;29;20592;-85
2022/12/18 08:26:20;;;;;;;40.60;19.03;;;;;;;-6.59;83.69;96492.97;4918356;29;20207;-85
2022/12/18 08:28:46;;;;;;;43.40;18.33;;;;;;;-6.37;82.72;96492.66;4904693;29;20207;-86
2022/12/18 08:31:36;;;;;;;35.03;18.30;;;;;;;-6.21;81.57;96496.63;4919213;29;20247;-87
2022/12/18 08:34:01;;;;;;;43.60;19.00;;;;;;;-6.25;82.39;96497.53;4915185;29;20258;-85
2022/12/18 08:36:26;;;;;;;42.30;18.07;;;;;;;-6.08;81.09;96499.81;4924722;28;20200;-84
2022/12/18 08:38:52;;;;;;;42.00;19.10;;;;;;;-5.97;80.60;96497.94;4939277;29;20215;-84
2022/12/18 08:41:17;;;;;;;45.13;19.93;;;;;;;-5.89;79.56;96508.72;4914949;29;20253;-85
2022/12/18 08:46:32;;;;;;;44.50;19.60;;;;;;;-5.59;78.42;96484.59;4949052;29;20262;-83
2022/12/18 08:49:00;;;;;;;40.40;19.67;;;;;;;-5.66;78.99;96480.50;4927742;29;20273;-84
2022/12/18 08:51:29;;;;;;;40.93;19.10;;;;;;;-5.65;79.70;96476.25;4949556;29;20263;-84
2022/12/18 08:53:54;;;;;;;43.77;20.13;;;;;;;-5.67;79.68;96465.34;4925347;29;20187;-82
2022/12/18 08:56:20;;;;;;;42.33;19.97;;;;;;;-5.47;79.53;96473.44;4924026;29;20584;-85
2022/12/18 08:58:51;;;;;;;42.73;19.17;;;;;;;-5.53;79.67;96476.91;4937618;29;20196;-83
2022/12/18 09:01:18;;;;;;;44.67;20.43;;;;;;;-5.26;78.76;96473.00;4941264;29;20217;-83
2022/12/18 09:03:48;;;;;;;42.07;20.40;;;;;;;-5.22;78.79;96464.47;4926822;29;20216;-84
2022/12/18 09:06:15;;;;;;;42.97;20.73;;;;;;;-5.03;78.13;96480.16;4940255;29;20215;-83
2022/12/18 09:08:41;;;;;;;39.57;19.43;;;;;;;-5.21;77.99;96461.09;4959282;29;20271;-84
2022/12/18 09:11:14;;;;;;;42.63;19.90;;;;;;;-5.14;79.04;96460.09;4919665;29;20212;-84
2022/12/18 09:13:39;;;;;;;41.73;18.77;;;;;;;-4.98;78.64;96460.63;4941137;29;20264;-85
2022/12/18 09:16:05;;;;;;;41.33;19.47;;;;;;;-4.93;78.78;96461.38;4903115;29;1123143;-84
2022/12/18 09:18:30;;;;;;;44.40;20.50;;;;;;;-5.06;79.26;96454.88;4918965;29;20673;-84
2022/12/18 09:20:56;;;;;;;50.67;21.53;;;;;;;-5.20;79.07;96454.34;4935410;29;20197;-84
2022/12/18 09:23:24;;;;;;;43.80;20.33;;;;;;;-5.08;79.20;96453.25;4934581;29;20224;-85
2022/12/18 09:25:52;;;;;;;45.53;21.33;;;;;;;-5.21;80.47;96447.59;4952051;29;20212;-86
2022/12/18 09:28:18;;;;;;;47.17;20.47;;;;;;;-5.09;80.48;96438.91;4925550;29;20189;-84
2022/12/18 09:30:48;;;;;;;49.17;21.80;;;;;;;-4.99;81.24;96443.75;4942842;29;20185;-84
2022/12/18 09:33:16;;;;;;;43.07;20.83;;;;;;;-4.84;79.80;96437.53;4929073;29;20195;-85
2022/12/18 09:35:43;;;;;;;42.73;21.37;;;;;;;-4.94;80.03;96439.44;4961585;29;20291;-84
2022/12/18 09:38:12;;;;;;;45.13;20.57;;;;;;;-4.80;80.08;96446.72;4964295;28;20176;-84
2022/12/18 09:40:49;;;;;;;46.70;20.97;;;;;;;-4.83;80.09;96449.34;4947784;28;20184;-84
2022/12/18 09:43:19;;;;;;;49.47;20.60;;;;;;;-4.77;80.03;96454.28;4933826;29;20207;-84
2022/12/18 09:45:47;;;;;;;44.50;19.93;;;;;;;-4.94;80.16;96463.94;4941110;29;20761;-84
2022/12/18 09:48:36;;;;;;;43.33;20.90;;;;;;;-4.83;80.76;96461.16;4915122;29;20200;-85
2022/12/18 09:51:19;;;;;;;48.80;22.47;;;;;;;-4.70;80.42;96475.22;4937970;29;20646;-85
2022/12/18 09:53:49;;;;;;;50.83;22.10;;;;;;;-4.36;78.71;96470.25;4939238;29;20257;-85
2022/12/18 09:56:22;;;;;;;49.27;23.30;;;;;;;-4.44;78.39;96495.78;4914944;29;20206;-83
2022/12/18 09:58:53;;;;;;;51.30;21.87;;;;;;;-4.27;78.80;96495.38;4917119;29;20181;-84
2022/12/18 10:01:22;;;;;;;45.93;22.83;;;;;;;-4.10;77.51;96500.91;4908018;28;20311;-84
2022/12/18 10:03:47;;;;;;;47.97;20.47;;;;;;;-4.30;78.53;96501.38;4934039;28;20221;-83
2022/12/18 10:06:22;;;;;;;51.50;23.97;;;;;;;-4.35;78.38;96500.63;4956216;28;20228;-84
2022/12/18 10:09:10;;;;;;;45.47;20.97;;;;;;;-4.01;77.03;96510.84;4955711;28;20180;-84
2022/12/18 10:11:57;;;;;;;50.57;22.60;;;;;;;-3.88;78.02;96511.41;4941590;28;20230;-84
2022/12/18 10:14:30;;;;;;;48.20;23.33;;;;;;;-3.82;76.85;96510.41;4958286;28;20192;-84
2022/12/18 10:17:13;;;;;;;48.17;21.77;;;;;;;-3.94;77.21;96514.06;4935542;28;20231;-85
2022/12/18 10:19:51;;;;;;;47.03;21.83;;;;;;;-3.64;76.74;96504.03;4956197;28;20189;-82
2022/12/18 10:22:35;;;;;;;49.80;23.70;;;;;;;-3.56;76.92;96513.13;4956980;28;20758;-82
2022/12/18 10:25:06;;;;;;;47.57;23.63;;;;;;;-3.69;76.70;96516.03;4950351;28;20573;-83
2022/12/18 10:27:31;;;;;;;50.93;23.33;;;;;;;-3.49;76.16;96508.72;4934269;28;20276;-84
2022/12/18 10:29:57;;;;;;;49.10;22.67;;;;;;;-3.29;75.89;96516.66;4958608;28;20263;-84
2022/12/18 10:32:25;;;;;;;42.93;22.83;;;;;;;-3.11;74.65;96519.56;4930818;28;20185;-85
2022/12/18 10:34:53;;;;;;;50.27;23.60;;;;;;;-3.11;75.17;96528.03;4925941;28;20357;-83
2022/12/18 10:37:23;;;;;;;49.90;23.03;;;;;;;-2.88;74.19;96515.53;4942898;28;20247;-84
2022/12/18 10:40:11;;;;;;;58.80;24.07;;;;;;;-2.98;72.49;96513.31;4959213;28;20195;-84
2022/12/18 10:42:37;;;;;;;48.63;23.60;;;;;;;-3.13;73.28;96502.66;4975544;28;20604;-84
2022/12/18 10:45:15;;;;;;;48.67;23.87;;;;;;;-2.91;74.20;96514.81;4978549;28;20200;-82
2022/12/18 10:47:50;;;;;;;50.03;22.97;;;;;;;-2.88;72.91;96523.16;4962108;28;20306;-83
2022/12/18 10:50:28;;;;;;;50.40;23.13;;;;;;;-2.77;72.60;96520.31;4960955;28;20642;-83
2022/12/18 10:52:59;;;;;;;47.87;23.53;;;;;;;-2.86;73.25;96515.50;4978987;28;20191;-83
2022/12/18 10:55:29;;;;;;;47.33;22.80;;;;;;;-2.89;73.46;96501.16;4942538;28;20607;-84
2022/12/18 10:58:22;;;;;;;47.23;23.10;;;;;;;-2.70;73.41;96500.63;4958846;28;20180;-84
2022/12/18 11:01:10;;;;;;;46.60;22.03;;;;;;;-2.67;73.48;96495.44;4976713;28;20723;-84
2022/12/18 11:03:36;;;;;;;46.87;22.67;;;;;;;-2.78;72.62;96493.22;4978051;28;20215;-85
2022/12/18 11:06:13;;;;;;;50.27;23.80;;;;;;;-2.46;72.97;96501.63;4977215;28;20212;-83
2022/12/18 11:08:39;;;;;;;45.63;22.03;;;;;;;-2.60;72.62;96502.88;4960355;28;20176;-85
2022/12/18 11:11:14;;;;;;;46.73;23.30;;;;;;;-2.69;73.89;96498.03;4961506;28;20190;-84
2022/12/18 11:13:40;;;;;;;50.23;24.47;;;;;;;-2.55;73.49;96495.13;4960753;28;20180;-83
2022/12/18 11:16:05;;;;;;;53.30;24.53;;;;;;;-2.74;73.22;96497.38;4960534;28;20220;-85
2022/12/18 11:18:35;;;;;;;52.50;23.80;;;;;;;-2.91;73.75;96499.56;4958610;28;20726;-84
2022/12/18 11:21:03;;;;;;;53.50;24.10;;;;;;;-3.15;75.22;96504.44;4961449;28;20180;-84
2022/12/18 11:23:28;;;;;;;48.97;23.87;;;;;;;-2.86;74.65;96505.31;4959272;28;20276;-83
2022/12/18 11:25:57;;;;;;;49.00;24.63;;;;;;;-3.19;75.20;96505.38;4944132;28;20240;-83
2022/12/18 11:28:41;;;;;;;50.07;23.80;;;;;;;-2.62;74.30;96498.72;4978706;28;20200;-83